PRIVATE WETTERSTATION BILLIGHEIM-ALLFELD                       ZURCK
Wetterdaten: Dienstag, 29.08.2017
Datum Zeit Temp. A. Temp. A. min Temp. A. max Feuchte A. Luftdruck Regen Wind Richtung Richtung Sonnenschein ET Solar Taupunkt Windchill Windben Empfang
29.08.2017 00:00 16,8 C 16,8 C 17,0 C 86 % 1016,4 hPa 0,0 l/m 1,6 km/h (1 Bft) N 360 0 min 0,025 mm 0 W/m 14,4 C 16,8 C 4,8 km/h (1 Bft) 100 %
29.08.2017 00:10 16,7 C 16,7 C 16,8 C 86 % 1016,4 hPa 0,0 l/m 3,2 km/h (1 Bft) N 360 0 min 0,000 mm 0 W/m 14,3 C 16,7 C 4,8 km/h (1 Bft) 100 %
29.08.2017 00:20 16,5 C 16,5 C 16,7 C 86 % 1016,3 hPa 0,0 l/m 1,6 km/h (1 Bft) N 360 0 min 0,000 mm 0 W/m 14,1 C 16,5 C 4,8 km/h (1 Bft) 100 %
29.08.2017 00:30 16,3 C 16,3 C 16,5 C 87 % 1016,5 hPa 0,0 l/m 1,6 km/h (1 Bft) N 360 0 min 0,000 mm 0 W/m 14,1 C 16,3 C 4,8 km/h (1 Bft) 100 %
29.08.2017 00:40 16,1 C 16,1 C 16,3 C 87 % 1016,5 hPa 0,0 l/m 0,0 km/h (0 Bft) N 360 0 min 0,000 mm 0 W/m 13,9 C 16,1 C 1,6 km/h (1 Bft) 100 %
29.08.2017 00:50 15,9 C 15,9 C 16,1 C 87 % 1016,4 hPa 0,0 l/m 1,6 km/h (1 Bft) N 360 0 min 0,000 mm 0 W/m 13,7 C 15,9 C 4,8 km/h (1 Bft) 100 %
29.08.2017 01:00 15,8 C 15,8 C 15,9 C 88 % 1016,3 hPa 0,0 l/m 1,6 km/h (1 Bft) N 360 0 min 0,025 mm 0 W/m 13,8 C 15,8 C 4,8 km/h (1 Bft) 100 %
29.08.2017 01:10 15,7 C 15,7 C 15,8 C 88 % 1016,2 hPa 0,0 l/m 1,6 km/h (1 Bft) N 360 0 min 0,000 mm 0 W/m 13,7 C 15,7 C 3,2 km/h (1 Bft) 100 %
29.08.2017 01:20 15,6 C 15,6 C 15,7 C 88 % 1016,2 hPa 0,0 l/m 0,0 km/h (0 Bft) N 0 0 min 0,000 mm 0 W/m 13,6 C 15,6 C 0,0 km/h (0 Bft) 100 %
29.08.2017 01:30 15,4 C 15,4 C 15,6 C 88 % 1016,2 hPa 0,0 l/m 0,0 km/h (0 Bft) N 0 0 min 0,000 mm 0 W/m 13,4 C 15,4 C 0,0 km/h (0 Bft) 100 %
29.08.2017 01:40 15,3 C 15,3 C 15,4 C 88 % 1016,1 hPa 0,0 l/m 0,0 km/h (0 Bft) N 360 0 min 0,000 mm 0 W/m 13,3 C 15,3 C 3,2 km/h (1 Bft) 100 %
29.08.2017 01:50 15,2 C 15,2 C 15,3 C 88 % 1016,1 hPa 0,0 l/m 0,0 km/h (0 Bft) N 360 0 min 0,000 mm 0 W/m 13,2 C 15,2 C 4,8 km/h (1 Bft) 100 %
29.08.2017 02:00 15,1 C 15,1 C 15,2 C 88 % 1016,0 hPa 0,0 l/m 1,6 km/h (1 Bft) N 360 0 min 0,000 mm 0 W/m 13,1 C 15,1 C 4,8 km/h (1 Bft) 100 %
29.08.2017 02:10 15,1 C 15,1 C 15,1 C 88 % 1015,9 hPa 0,0 l/m 0,0 km/h (0 Bft) N 360 0 min 0,000 mm 0 W/m 13,1 C 15,1 C 4,8 km/h (1 Bft) 100 %
29.08.2017 02:20 15,1 C 15,1 C 15,1 C 88 % 1015,9 hPa 0,0 l/m 1,6 km/h (1 Bft) N 360 0 min 0,000 mm 0 W/m 13,1 C 15,1 C 6,4 km/h (2 Bft) 100 %
29.08.2017 02:30 15,1 C 15,1 C 15,1 C 88 % 1015,8 hPa 0,0 l/m 1,6 km/h (1 Bft) N 360 0 min 0,000 mm 0 W/m 13,1 C 15,1 C 6,4 km/h (2 Bft) 100 %
29.08.2017 02:40 15,1 C 15,1 C 15,1 C 88 % 1015,8 hPa 0,0 l/m 1,6 km/h (1 Bft) N 360 0 min 0,000 mm 0 W/m 13,1 C 15,1 C 6,4 km/h (2 Bft) 100 %
29.08.2017 02:50 15,0 C 15,0 C 15,1 C 88 % 1015,8 hPa 0,0 l/m 0,0 km/h (0 Bft) N 360 0 min 0,000 mm 0 W/m 13,0 C 15,0 C 4,8 km/h (1 Bft) 100 %
29.08.2017 03:00 15,0 C 15,0 C 15,1 C 88 % 1015,8 hPa 0,0 l/m 1,6 km/h (1 Bft) N 360 0 min 0,000 mm 0 W/m 13,0 C 15,0 C 6,4 km/h (2 Bft) 100 %
29.08.2017 03:10 15,0 C 15,0 C 15,1 C 88 % 1015,7 hPa 0,0 l/m 1,6 km/h (1 Bft) N 360 0 min 0,000 mm 0 W/m 13,0 C 15,0 C 6,4 km/h (2 Bft) 100 %
29.08.2017 03:20 15,0 C 15,0 C 15,1 C 88 % 1015,6 hPa 0,0 l/m 1,6 km/h (1 Bft) N 360 0 min 0,000 mm 0 W/m 13,0 C 15,0 C 4,8 km/h (1 Bft) 100 %
29.08.2017 03:30 14,9 C 14,9 C 15,0 C 88 % 1015,5 hPa 0,0 l/m 1,6 km/h (1 Bft) N 360 0 min 0,000 mm 0 W/m 12,9 C 14,9 C 4,8 km/h (1 Bft) 100 %
29.08.2017 03:40 14,8 C 14,8 C 14,9 C 88 % 1015,5 hPa 0,0 l/m 0,0 km/h (0 Bft) N 360 0 min 0,000 mm 0 W/m 12,8 C 14,8 C 4,8 km/h (1 Bft) 99 %
29.08.2017 03:50 14,7 C 14,7 C 14,8 C 88 % 1015,5 hPa 0,0 l/m 0,0 km/h (0 Bft) N 0 0 min 0,000 mm 0 W/m 12,7 C 14,7 C 0,0 km/h (0 Bft) 100 %
29.08.2017 04:00 14,6 C 14,6 C 14,7 C 88 % 1015,4 hPa 0,0 l/m 0,0 km/h (0 Bft) N 360 0 min 0,000 mm 0 W/m 12,6 C 14,6 C 4,8 km/h (1 Bft) 100 %
29.08.2017 04:10 14,4 C 14,4 C 14,5 C 88 % 1015,3 hPa 0,0 l/m 0,0 km/h (0 Bft) N 0 0 min 0,000 mm 0 W/m 12,4 C 14,4 C 0,0 km/h (0 Bft) 100 %
29.08.2017 04:20 14,3 C 14,3 C 14,4 C 88 % 1015,3 hPa 0,0 l/m 1,6 km/h (1 Bft) N 360 0 min 0,000 mm 0 W/m 12,3 C 14,3 C 4,8 km/h (1 Bft) 100 %
29.08.2017 04:30 14,3 C 14,3 C 14,3 C 89 % 1015,2 hPa 0,0 l/m 0,0 km/h (0 Bft) N 360 0 min 0,000 mm 0 W/m 12,5 C 14,3 C 4,8 km/h (1 Bft) 100 %
29.08.2017 04:40 14,2 C 14,2 C 14,3 C 89 % 1015,1 hPa 0,0 l/m 0,0 km/h (0 Bft) N 360 0 min 0,000 mm 0 W/m 12,4 C 14,2 C 3,2 km/h (1 Bft) 100 %
29.08.2017 04:50 14,1 C 14,1 C 14,2 C 88 % 1015,2 hPa 0,0 l/m 0,0 km/h (0 Bft) N 0 0 min 0,000 mm 0 W/m 12,1 C 14,1 C 0,0 km/h (0 Bft) 99 %
29.08.2017 05:00 14,0 C 14,0 C 14,1 C 89 % 1015,1 hPa 0,0 l/m 0,0 km/h (0 Bft) N 0 0 min 0,000 mm 0 W/m 12,2 C 14,0 C 0,0 km/h (0 Bft) 100 %
29.08.2017 05:10 13,9 C 13,9 C 14,0 C 89 % 1015,0 hPa 0,0 l/m 0,0 km/h (0 Bft) N 0 0 min 0,000 mm 0 W/m 12,1 C 13,9 C 0,0 km/h (0 Bft) 100 %
29.08.2017 05:20 13,8 C 13,8 C 13,9 C 89 % 1014,9 hPa 0,0 l/m 1,6 km/h (1 Bft) N 360 0 min 0,000 mm 0 W/m 12,0 C 13,8 C 4,8 km/h (1 Bft) 100 %
29.08.2017 05:30 13,7 C 13,7 C 13,8 C 89 % 1014,9 hPa 0,0 l/m 3,2 km/h (1 Bft) N 360 0 min 0,000 mm 0 W/m 11,9 C 13,7 C 4,8 km/h (1 Bft) 100 %
29.08.2017 05:40 13,7 C 13,7 C 13,8 C 89 % 1014,8 hPa 0,0 l/m 0,0 km/h (0 Bft) N 360 0 min 0,000 mm 0 W/m 11,9 C 13,7 C 3,2 km/h (1 Bft) 100 %
29.08.2017 05:50 13,6 C 13,6 C 13,7 C 89 % 1014,9 hPa 0,0 l/m 0,0 km/h (0 Bft) N 0 0 min 0,000 mm 0 W/m 11,8 C 13,6 C 0,0 km/h (0 Bft) 100 %
29.08.2017 06:00 13,6 C 13,6 C 13,6 C 89 % 1014,8 hPa 0,0 l/m 0,0 km/h (0 Bft) N 360 0 min 0,000 mm 0 W/m 11,8 C 13,6 C 3,2 km/h (1 Bft) 98 %
29.08.2017 06:10 13,4 C 13,4 C 13,6 C 89 % 1014,8 hPa 0,0 l/m 0,0 km/h (0 Bft) N 0 0 min 0,000 mm 0 W/m 11,6 C 13,4 C 0,0 km/h (0 Bft) 99 %
29.08.2017 06:20 13,4 C 13,4 C 13,4 C 89 % 1014,8 hPa 0,0 l/m 0,0 km/h (0 Bft) N 0 0 min 0,000 mm 0 W/m 11,6 C 13,4 C 0,0 km/h (0 Bft) 96 %
29.08.2017 06:30 13,3 C 13,3 C 13,4 C 89 % 1014,9 hPa 0,0 l/m 0,0 km/h (0 Bft) N 0 0 min 0,000 mm 0 W/m 11,5 C 13,3 C 0,0 km/h (0 Bft) 98 %
29.08.2017 06:40 13,3 C 13,3 C 13,3 C 89 % 1014,8 hPa 0,0 l/m 1,6 km/h (1 Bft) N 360 0 min 0,000 mm 0 W/m 11,5 C 13,3 C 3,2 km/h (1 Bft) 97 %
29.08.2017 06:50 13,3 C 13,3 C 13,3 C 89 % 1014,9 hPa 0,0 l/m 1,6 km/h (1 Bft) N 360 0 min 0,000 mm 9 W/m 11,5 C 13,3 C 3,2 km/h (1 Bft) 97 %
29.08.2017 07:00 13,2 C 13,2 C 13,3 C 89 % 1014,8 hPa 0,0 l/m 0,0 km/h (0 Bft) N 360 0 min 0,000 mm 12 W/m 11,4 C 13,2 C 3,2 km/h (1 Bft) 98 %
29.08.2017 07:10 13,2 C 13,2 C 13,2 C 89 % 1014,9 hPa 0,0 l/m 0,0 km/h (0 Bft) N 360 0 min 0,000 mm 16 W/m 11,4 C 13,2 C 3,2 km/h (1 Bft) 97 %
29.08.2017 07:20 13,3 C 13,2 C 13,3 C 89 % 1014,8 hPa 0,0 l/m 1,6 km/h (1 Bft) N 360 0 min 0,000 mm 19 W/m 11,5 C 13,3 C 3,2 km/h (1 Bft) 97 %
29.08.2017 07:30 13,3 C 13,3 C 13,3 C 89 % 1014,9 hPa 0,0 l/m 0,0 km/h (0 Bft) N 0 0 min 0,000 mm 25 W/m 11,5 C 13,3 C 0,0 km/h (0 Bft) 97 %
29.08.2017 07:40 13,4 C 13,3 C 13,4 C 89 % 1014,9 hPa 0,0 l/m 0,0 km/h (0 Bft) N 0 0 min 0,000 mm 26 W/m 11,6 C 13,4 C 0,0 km/h (0 Bft) 98 %
29.08.2017 07:50 13,5 C 13,4 C 13,5 C 89 % 1015,0 hPa 0,0 l/m 0,0 km/h (0 Bft) N 0 0 min 0,000 mm 30 W/m 11,7 C 13,5 C 0,0 km/h (0 Bft) 98 %
29.08.2017 08:00 13,6 C 13,4 C 13,6 C 89 % 1015,0 hPa 0,0 l/m 0,0 km/h (0 Bft) N 0 0 min 0,025 mm 33 W/m 11,8 C 13,6 C 0,0 km/h (0 Bft) 97 %
29.08.2017 08:10 13,7 C 13,6 C 13,7 C 88 % 1015,2 hPa 0,0 l/m 0,0 km/h (0 Bft) N 0 0 min 0,000 mm 39 W/m 11,7 C 13,7 C 0,0 km/h (0 Bft) 98 %
29.08.2017 08:20 13,9 C 13,7 C 13,9 C 89 % 1015,2 hPa 0,0 l/m 0,0 km/h (0 Bft) N 0 0 min 0,000 mm 44 W/m 12,1 C 13,9 C 0,0 km/h (0 Bft) 97 %
29.08.2017 08:30 14,2 C 13,9 C 14,2 C 89 % 1015,2 hPa 0,0 l/m 0,0 km/h (0 Bft) N 0 0 min 0,000 mm 54 W/m 12,4 C 14,2 C 0,0 km/h (0 Bft) 98 %
29.08.2017 08:40 14,9 C 14,2 C 14,9 C 89 % 1015,1 hPa 0,0 l/m 0,0 km/h (0 Bft) N 0 10 min 0,000 mm 253 W/m 13,1 C 14,9 C 0,0 km/h (0 Bft) 97 %
29.08.2017 08:50 15,9 C 14,9 C 15,9 C 89 % 1015,0 hPa 0,0 l/m 0,0 km/h (0 Bft) N 0 10 min 0,000 mm 292 W/m 14,1 C 15,9 C 0,0 km/h (0 Bft) 97 %
29.08.2017 09:00 17,1 C 15,9 C 17,1 C 88 % 1015,1 hPa 0,0 l/m 0,0 km/h (0 Bft) N 0 10 min 0,076 mm 323 W/m 15,1 C 17,1 C 0,0 km/h (0 Bft) 98 %
29.08.2017 09:10 18,1 C 17,1 C 18,1 C 84 % 1015,1 hPa 0,0 l/m 0,0 km/h (0 Bft) N 0 10 min 0,000 mm 341 W/m 15,4 C 18,1 C 0,0 km/h (0 Bft) 97 %
29.08.2017 09:20 19,0 C 18,1 C 19,0 C 80 % 1015,3 hPa 0,0 l/m 0,0 km/h (0 Bft) N 0 10 min 0,000 mm 366 W/m 15,5 C 19,0 C 0,0 km/h (0 Bft) 97 %
29.08.2017 09:30 19,7 C 19,0 C 19,7 C 78 % 1015,2 hPa 0,0 l/m 0,0 km/h (0 Bft) N 0 10 min 0,000 mm 408 W/m 15,8 C 19,7 C 0,0 km/h (0 Bft) 97 %
29.08.2017 09:40 20,3 C 19,7 C 20,3 C 78 % 1015,2 hPa 0,0 l/m 0,0 km/h (0 Bft) N 0 10 min 0,000 mm 445 W/m 16,3 C 20,3 C 0,0 km/h (0 Bft) 98 %
29.08.2017 09:50 20,8 C 20,3 C 20,8 C 73 % 1015,3 hPa 0,0 l/m 0,0 km/h (0 Bft) N 360 10 min 0,000 mm 475 W/m 15,8 C 20,8 C 1,6 km/h (1 Bft) 97 %
29.08.2017 10:00 21,1 C 20,8 C 21,1 C 73 % 1015,3 hPa 0,0 l/m 0,0 km/h (0 Bft) N 0 10 min 0,229 mm 501 W/m 16,1 C 21,1 C 0,0 km/h (0 Bft) 98 %
29.08.2017 10:10 21,5 C 21,1 C 21,5 C 72 % 1015,3 hPa 0,0 l/m 0,0 km/h (0 Bft) N 0 10 min 0,000 mm 522 W/m 16,2 C 21,5 C 0,0 km/h (0 Bft) 98 %
29.08.2017 10:20 22,0 C 21,5 C 22,0 C 72 % 1015,2 hPa 0,0 l/m 0,0 km/h (0 Bft) N 360 10 min 0,000 mm 550 W/m 16,7 C 22,0 C 1,6 km/h (1 Bft) 98 %
29.08.2017 10:30 22,7 C 22,0 C 22,7 C 70 % 1015,2 hPa 0,0 l/m 0,0 km/h (0 Bft) N 360 10 min 0,000 mm 571 W/m 16,9 C 22,7 C 1,6 km/h (1 Bft) 98 %
29.08.2017 10:40 23,2 C 22,7 C 23,2 C 69 % 1015,2 hPa 0,0 l/m 0,0 km/h (0 Bft) N 0 10 min 0,000 mm 594 W/m 17,2 C 23,2 C 0,0 km/h (0 Bft) 97 %
29.08.2017 10:50 23,7 C 23,2 C 23,7 C 67 % 1015,1 hPa 0,0 l/m 0,0 km/h (0 Bft) N 360 10 min 0,000 mm 612 W/m 17,2 C 23,7 C 1,6 km/h (1 Bft) 98 %
29.08.2017 11:00 24,2 C 23,7 C 24,2 C 70 % 1015,0 hPa 0,0 l/m 0,0 km/h (0 Bft) N 360 10 min 0,356 mm 638 W/m 18,4 C 24,2 C 1,6 km/h (1 Bft) 97 %
29.08.2017 11:10 24,8 C 24,2 C 24,8 C 69 % 1014,9 hPa 0,0 l/m 0,0 km/h (0 Bft) N 0 10 min 0,000 mm 659 W/m 18,7 C 24,8 C 0,0 km/h (0 Bft) 97 %
29.08.2017 11:20 25,6 C 24,8 C 25,6 C 65 % 1014,8 hPa 0,0 l/m 0,0 km/h (0 Bft) NO 45 10 min 0,000 mm 680 W/m 18,5 C 25,6 C 1,6 km/h (1 Bft) 98 %
29.08.2017 11:30 26,0 C 25,6 C 26,0 C 66 % 1014,8 hPa 0,0 l/m 0,0 km/h (0 Bft) O-NO 67 10 min 0,000 mm 694 W/m 19,1 C 26,0 C 1,6 km/h (1 Bft) 97 %
29.08.2017 11:40 26,8 C 26,1 C 26,8 C 61 % 1014,7 hPa 0,0 l/m 0,0 km/h (0 Bft) O-NO 67 10 min 0,000 mm 710 W/m 18,6 C 26,8 C 1,6 km/h (1 Bft) 98 %
29.08.2017 11:50 27,2 C 26,8 C 27,2 C 59 % 1014,7 hPa 0,0 l/m 0,0 km/h (0 Bft) O-SO 112 10 min 0,000 mm 724 W/m 18,5 C 27,2 C 6,4 km/h (2 Bft) 98 %
29.08.2017 12:00 27,2 C 27,2 C 27,3 C 60 % 1014,6 hPa 0,0 l/m 1,6 km/h (1 Bft) O-SO 112 10 min 0,432 mm 735 W/m 18,7 C 27,2 C 9,7 km/h (2 Bft) 98 %
29.08.2017 12:10 27,2 C 27,2 C 27,3 C 57 % 1014,7 hPa 0,0 l/m 2,6 km/h (1 Bft) O 96 10 min 0,000 mm 752 W/m 17,9 C 27,2 C 6,4 km/h (2 Bft) 100 %
29.08.2017 12:20 27,3 C 27,2 C 27,3 C 57 % 1014,5 hPa 0,0 l/m 1,0 km/h (0 Bft) SO 136 10 min 0,000 mm 759 W/m 18,0 C 27,3 C 16,1 km/h (3 Bft) 99 %
29.08.2017 12:30 27,3 C 27,2 C 27,3 C 60 % 1014,4 hPa 0,0 l/m 1,2 km/h (1 Bft) O-SO 103 10 min 0,000 mm 765 W/m 18,8 C 27,3 C 8,0 km/h (2 Bft) 100 %
29.08.2017 12:40 27,3 C 27,2 C 27,3 C 57 % 1014,4 hPa 0,0 l/m 1,9 km/h (1 Bft) O 94 10 min 0,000 mm 770 W/m 18,0 C 27,3 C 14,5 km/h (3 Bft) 100 %
29.08.2017 12:50 27,4 C 27,2 C 27,4 C 58 % 1014,1 hPa 0,0 l/m 1,4 km/h (1 Bft) SW 216 10 min 0,000 mm 759 W/m 18,4 C 27,4 C 9,7 km/h (2 Bft) 98 %
29.08.2017 13:00 27,5 C 27,4 C 27,5 C 57 % 1014,1 hPa 0,0 l/m 4,7 km/h (1 Bft) S 185 10 min 0,000 mm 770 W/m 18,2 C 27,5 C 14,5 km/h (3 Bft) 100 %
29.08.2017 13:10 27,8 C 27,5 C 27,9 C 54 % 1014,1 hPa 0,0 l/m 3,3 km/h (1 Bft) O 97 10 min 0,483 mm 795 W/m 17,6 C 27,8 C 8,0 km/h (2 Bft) 100 %
29.08.2017 13:20 28,0 C 27,8 C 28,0 C 57 % 1013,9 hPa 0,0 l/m 3,6 km/h (1 Bft) S-SW 209 10 min 0,000 mm 788 W/m 18,7 C 28,0 C 9,7 km/h (2 Bft) 99 %
29.08.2017 13:30 28,1 C 28,0 C 28,2 C 56 % 1014,0 hPa 0,0 l/m 4,2 km/h (1 Bft) O-NO 72 10 min 0,000 mm 793 W/m 18,5 C 28,1 C 11,3 km/h (2 Bft) 100 %
29.08.2017 13:40 28,1 C 28,1 C 28,1 C 54 % 1013,9 hPa 0,0 l/m 4,4 km/h (1 Bft) S-SW 196 10 min 0,000 mm 784 W/m 17,9 C 28,1 C 11,3 km/h (2 Bft) 100 %
29.08.2017 13:50 28,5 C 28,1 C 28,5 C 56 % 1013,8 hPa 0,0 l/m 1,6 km/h (1 Bft) W-NW 288 10 min 0,000 mm 766 W/m 18,8 C 28,5 C 14,5 km/h (3 Bft) 100 %
29.08.2017 14:00 28,7 C 28,5 C 28,7 C 53 % 1013,8 hPa 0,0 l/m 0,7 km/h (0 Bft) S 178 10 min 0,533 mm 756 W/m 18,2 C 28,7 C 8,0 km/h (2 Bft) 100 %
29.08.2017 14:10 28,8 C 28,7 C 28,8 C 52 % 1013,7 hPa 0,0 l/m 0,8 km/h (0 Bft) O-SO 115 10 min 0,000 mm 756 W/m 17,9 C 28,8 C 8,0 km/h (2 Bft) 98 %
29.08.2017 14:20 28,4 C 28,4 C 28,8 C 52 % 1013,5 hPa 0,0 l/m 2,1 km/h (1 Bft) S-SO 156 10 min 0,000 mm 763 W/m 17,6 C 28,4 C 14,5 km/h (3 Bft) 100 %
29.08.2017 14:30 28,4 C 28,3 C 28,4 C 53 % 1013,3 hPa 0,0 l/m 1,9 km/h (1 Bft) S-SW 202 10 min 0,000 mm 747 W/m 17,9 C 28,4 C 11,3 km/h (2 Bft) 99 %
29.08.2017 14:40 28,6 C 28,4 C 28,6 C 49 % 1013,3 hPa 0,0 l/m 1,2 km/h (1 Bft) O 101 10 min 0,000 mm 735 W/m 16,8 C 28,6 C 9,7 km/h (2 Bft) 98 %
29.08.2017 14:50 28,3 C 28,3 C 28,6 C 51 % 1013,2 hPa 0,0 l/m 2,1 km/h (1 Bft) O 90 10 min 0,000 mm 715 W/m 17,2 C 28,3 C 9,7 km/h (2 Bft) 99 %
29.08.2017 15:00 28,4 C 28,3 C 28,4 C 51 % 1013,0 hPa 0,0 l/m 0,4 km/h (0 Bft) S-SO 159 10 min 0,483 mm 621 W/m 17,3 C 28,4 C 8,0 km/h (2 Bft) 100 %
29.08.2017 15:10 28,8 C 28,4 C 28,8 C 52 % 1012,8 hPa 0,0 l/m 0,1 km/h (0 Bft) NW 323 10 min 0,000 mm 664 W/m 17,9 C 28,8 C 4,8 km/h (1 Bft) 100 %
29.08.2017 15:20 29,2 C 28,8 C 29,2 C 47 % 1012,9 hPa 0,0 l/m 0,4 km/h (0 Bft) O-SO 110 10 min 0,000 mm 682 W/m 16,7 C 29,2 C 6,4 km/h (2 Bft) 100 %
29.08.2017 15:30 29,2 C 29,1 C 29,2 C 51 % 1012,8 hPa 0,0 l/m 0,3 km/h (0 Bft) O-SO 115 10 min 0,000 mm 650 W/m 18,0 C 29,2 C 8,0 km/h (2 Bft) 99 %
29.08.2017 15:40 29,0 C 29,0 C 29,2 C 49 % 1012,8 hPa 0,0 l/m 0,4 km/h (0 Bft) S-SO 159 10 min 0,000 mm 629 W/m 17,2 C 29,0 C 8,0 km/h (2 Bft) 100 %
29.08.2017 15:50 29,1 C 29,0 C 29,1 C 49 % 1012,6 hPa 0,0 l/m 0,5 km/h (0 Bft) O-SO 109 10 min 0,000 mm 610 W/m 17,3 C 29,1 C 8,0 km/h (2 Bft) 99 %
29.08.2017 16:00 28,9 C 28,9 C 29,1 C 51 % 1012,5 hPa 0,0 l/m 0,8 km/h (0 Bft) SO 142 10 min 0,432 mm 615 W/m 17,7 C 28,9 C 6,4 km/h (2 Bft) 100 %
29.08.2017 16:10 29,0 C 28,9 C 29,0 C 50 % 1012,4 hPa 0,0 l/m 1,1 km/h (1 Bft) SO 126 10 min 0,000 mm 466 W/m 17,5 C 29,0 C 9,7 km/h (2 Bft) 100 %
29.08.2017 16:20 29,0 C 29,0 C 29,0 C 48 % 1012,3 hPa 0,0 l/m 1,7 km/h (1 Bft) S 176 10 min 0,000 mm 566 W/m 16,9 C 29,0 C 11,3 km/h (2 Bft) 100 %
29.08.2017 16:30 29,0 C 29,0 C 29,1 C 50 % 1012,3 hPa 0,0 l/m 0,6 km/h (0 Bft) SO 128 10 min 0,000 mm 431 W/m 17,5 C 29,0 C 6,4 km/h (2 Bft) 100 %
29.08.2017 16:40 29,2 C 29,0 C 29,2 C 49 % 1012,2 hPa 0,0 l/m 0,1 km/h (0 Bft) W 263 0 min 0,000 mm 77 W/m 17,4 C 29,2 C 1,6 km/h (1 Bft) 100 %
29.08.2017 16:50 29,2 C 29,2 C 29,2 C 50 % 1012,2 hPa 0,0 l/m 0,4 km/h (0 Bft) S-SO 161 0 min 0,000 mm 72 W/m 17,7 C 29,2 C 6,4 km/h (2 Bft) 99 %
29.08.2017 17:00 29,2 C 29,2 C 29,2 C 51 % 1012,0 hPa 0,0 l/m 0,9 km/h (0 Bft) S-SW 213 0 min 0,228 mm 69 W/m 18,0 C 29,2 C 8,0 km/h (2 Bft) 100 %
29.08.2017 17:10 29,2 C 29,2 C 29,3 C 51 % 1011,9 hPa 0,0 l/m 0,8 km/h (0 Bft) S-SW 206 0 min 0,000 mm 67 W/m 18,0 C 29,2 C 8,0 km/h (2 Bft) 99 %
29.08.2017 17:20 29,1 C 29,1 C 29,2 C 51 % 1011,9 hPa 0,0 l/m 1,8 km/h (1 Bft) S-SW 200 0 min 0,000 mm 65 W/m 17,9 C 29,1 C 16,1 km/h (3 Bft) 100 %
29.08.2017 17:30 28,9 C 28,9 C 29,1 C 51 % 1011,8 hPa 0,0 l/m 1,2 km/h (1 Bft) W-SW 237 0 min 0,000 mm 63 W/m 17,7 C 28,9 C 11,3 km/h (2 Bft) 100 %
29.08.2017 17:40 28,9 C 28,9 C 28,9 C 49 % 1011,8 hPa 0,0 l/m 0,0 km/h (0 Bft) SW 222 0 min 0,000 mm 63 W/m 17,1 C 28,9 C 1,6 km/h (1 Bft) 100 %
29.08.2017 17:50 28,7 C 28,7 C 28,9 C 52 % 1011,8 hPa 0,0 l/m 0,1 km/h (0 Bft) S-SW 208 0 min 0,000 mm 62 W/m 17,8 C 28,7 C 1,6 km/h (1 Bft) 100 %
29.08.2017 18:00 28,6 C 28,6 C 28,7 C 52 % 1011,8 hPa 0,0 l/m 0,7 km/h (0 Bft) SW 215 0 min 0,051 mm 58 W/m 17,8 C 28,6 C 9,7 km/h (2 Bft) 100 %
29.08.2017 18:10 28,4 C 28,4 C 28,6 C 50 % 1011,8 hPa 0,0 l/m 1,1 km/h (1 Bft) S-SW 195 0 min 0,000 mm 54 W/m 17,0 C 28,4 C 8,0 km/h (2 Bft) 100 %
29.08.2017 18:20 28,3 C 28,3 C 28,4 C 49 % 1011,8 hPa 0,0 l/m 0,2 km/h (0 Bft) SW 232 0 min 0,000 mm 51 W/m 16,5 C 28,3 C 4,8 km/h (1 Bft) 100 %
29.08.2017 18:30 28,2 C 28,2 C 28,3 C 49 % 1011,8 hPa 0,0 l/m 2,2 km/h (1 Bft) S-SO 161 0 min 0,000 mm 46 W/m 16,5 C 28,2 C 9,7 km/h (2 Bft) 100 %
29.08.2017 18:40 28,1 C 28,1 C 28,3 C 50 % 1011,6 hPa 0,0 l/m 2,7 km/h (1 Bft) S 188 0 min 0,000 mm 42 W/m 16,7 C 28,1 C 9,7 km/h (2 Bft) 100 %
29.08.2017 18:50 27,9 C 27,9 C 28,1 C 49 % 1011,4 hPa 0,0 l/m 0,0 km/h (0 Bft) S 188 0 min 0,000 mm 37 W/m 16,2 C 27,9 C 3,2 km/h (1 Bft) 100 %
29.08.2017 19:00 27,8 C 27,8 C 27,9 C 49 % 1011,4 hPa 0,0 l/m 0,0 km/h (0 Bft) S 188 0 min 0,051 mm 33 W/m 16,1 C 27,8 C 1,6 km/h (1 Bft) 100 %
29.08.2017 19:10 27,6 C 27,6 C 27,8 C 51 % 1011,4 hPa 0,0 l/m 0,0 km/h (0 Bft) S 188 0 min 0,000 mm 30 W/m 16,5 C 27,6 C 0,0 km/h (0 Bft) 100 %
29.08.2017 19:20 27,4 C 27,4 C 27,6 C 53 % 1011,4 hPa 0,0 l/m 0,0 km/h (0 Bft) S 188 0 min 0,000 mm 26 W/m 17,0 C 27,4 C 1,6 km/h (1 Bft) 100 %
29.08.2017 19:30 27,0 C 27,0 C 27,4 C 54 % 1011,3 hPa 0,0 l/m 0,0 km/h (0 Bft) S 188 0 min 0,000 mm 23 W/m 16,9 C 27,0 C 0,0 km/h (0 Bft) 100 %
29.08.2017 19:40 26,6 C 26,6 C 27,0 C 52 % 1011,3 hPa 0,0 l/m 0,0 km/h (0 Bft) S 188 0 min 0,000 mm 16 W/m 15,9 C 26,6 C 0,0 km/h (0 Bft) 100 %
29.08.2017 19:50 26,2 C 26,2 C 26,6 C 54 % 1011,4 hPa 0,0 l/m 0,0 km/h (0 Bft) S 188 0 min 0,000 mm 7 W/m 16,1 C 26,2 C 0,0 km/h (0 Bft) 100 %
29.08.2017 20:00 25,8 C 25,8 C 26,2 C 57 % 1011,5 hPa 0,0 l/m 0,0 km/h (0 Bft) S 188 0 min 0,025 mm 0 W/m 16,6 C 25,8 C 0,0 km/h (0 Bft) 100 %
29.08.2017 20:10 25,3 C 25,3 C 25,8 C 56 % 1011,6 hPa 0,0 l/m 0,0 km/h (0 Bft) S 188 0 min 0,000 mm 0 W/m 15,9 C 25,3 C 0,0 km/h (0 Bft) 100 %
29.08.2017 20:20 24,8 C 24,8 C 25,3 C 59 % 1011,6 hPa 0,0 l/m 0,0 km/h (0 Bft) S 188 0 min 0,000 mm 0 W/m 16,2 C 24,8 C 0,0 km/h (0 Bft) 100 %
29.08.2017 20:30 24,3 C 24,3 C 24,8 C 59 % 1011,6 hPa 0,0 l/m 0,0 km/h (0 Bft) S 188 0 min 0,000 mm 0 W/m 15,8 C 24,3 C 0,0 km/h (0 Bft) 100 %
29.08.2017 20:40 23,8 C 23,8 C 24,3 C 61 % 1011,7 hPa 0,0 l/m 0,0 km/h (0 Bft) S 188 0 min 0,000 mm 0 W/m 15,8 C 23,8 C 0,0 km/h (0 Bft) 100 %
29.08.2017 20:50 23,3 C 23,3 C 23,8 C 62 % 1011,6 hPa 0,0 l/m 0,0 km/h (0 Bft) S 188 0 min 0,000 mm 0 W/m 15,6 C 23,3 C 0,0 km/h (0 Bft) 100 %
29.08.2017 21:00 22,9 C 22,9 C 23,3 C 63 % 1011,7 hPa 0,0 l/m 0,0 km/h (0 Bft) S 188 0 min 0,000 mm 0 W/m 15,5 C 22,9 C 0,0 km/h (0 Bft) 100 %
29.08.2017 21:10 22,5 C 22,5 C 22,9 C 66 % 1011,7 hPa 0,0 l/m 0,0 km/h (0 Bft) N 0 0 min 0,000 mm 0 W/m 15,8 C 22,5 C 0,0 km/h (0 Bft) 98 %
29.08.2017 21:20 22,1 C 22,1 C 22,5 C 68 % 1011,7 hPa 0,0 l/m 0,0 km/h (0 Bft) N 0 0 min 0,000 mm 0 W/m 15,9 C 22,1 C 0,0 km/h (0 Bft) 98 %
29.08.2017 21:30 21,7 C 21,7 C 22,1 C 69 % 1011,6 hPa 0,0 l/m 0,0 km/h (0 Bft) S 180 0 min 0,000 mm 0 W/m 15,8 C 21,7 C 1,6 km/h (1 Bft) 98 %
29.08.2017 21:40 21,3 C 21,3 C 21,7 C 73 % 1011,8 hPa 0,0 l/m 0,0 km/h (0 Bft) N 0 0 min 0,000 mm 0 W/m 16,3 C 21,3 C 0,0 km/h (0 Bft) 97 %
29.08.2017 21:50 20,9 C 20,9 C 21,3 C 74 % 1011,6 hPa 0,0 l/m 0,0 km/h (0 Bft) S-SW 202 0 min 0,000 mm 0 W/m 16,1 C 20,9 C 1,6 km/h (1 Bft) 98 %
29.08.2017 22:00 20,6 C 20,6 C 20,9 C 76 % 1011,7 hPa 0,0 l/m 1,6 km/h (1 Bft) SW 225 0 min 0,025 mm 0 W/m 16,2 C 20,6 C 4,8 km/h (1 Bft) 97 %
29.08.2017 22:10 20,3 C 20,3 C 20,6 C 77 % 1011,9 hPa 0,0 l/m 1,6 km/h (1 Bft) SW 225 0 min 0,000 mm 0 W/m 16,1 C 20,3 C 4,8 km/h (1 Bft) 98 %
29.08.2017 22:20 20,1 C 20,1 C 20,3 C 78 % 1011,9 hPa 0,0 l/m 1,6 km/h (1 Bft) W-SW 247 0 min 0,000 mm 0 W/m 16,1 C 20,1 C 4,8 km/h (1 Bft) 97 %
29.08.2017 22:30 19,9 C 19,9 C 20,1 C 79 % 1011,9 hPa 0,0 l/m 1,6 km/h (1 Bft) W-SW 247 0 min 0,000 mm 0 W/m 16,1 C 19,9 C 4,8 km/h (1 Bft) 97 %
29.08.2017 22:40 19,7 C 19,7 C 19,9 C 79 % 1011,7 hPa 0,0 l/m 0,0 km/h (0 Bft) W 270 0 min 0,000 mm 0 W/m 16,0 C 19,7 C 3,2 km/h (1 Bft) 98 %
29.08.2017 22:50 19,6 C 19,6 C 19,7 C 80 % 1011,8 hPa 0,0 l/m 0,0 km/h (0 Bft) W 270 0 min 0,000 mm 0 W/m 16,1 C 19,6 C 3,2 km/h (1 Bft) 97 %
29.08.2017 23:00 19,3 C 19,3 C 19,6 C 81 % 1011,8 hPa 0,0 l/m 0,0 km/h (0 Bft) W 270 0 min 0,025 mm 0 W/m 16,0 C 19,3 C 3,2 km/h (1 Bft) 98 %
29.08.2017 23:10 19,2 C 19,2 C 19,3 C 81 % 1012,0 hPa 0,0 l/m 3,2 km/h (1 Bft) W 270 0 min 0,000 mm 0 W/m 15,9 C 19,2 C 6,4 km/h (2 Bft) 97 %
29.08.2017 23:20 19,0 C 19,0 C 19,2 C 81 % 1012,0 hPa 0,0 l/m 3,2 km/h (1 Bft) W-NW 292 0 min 0,000 mm 0 W/m 15,7 C 19,0 C 4,8 km/h (1 Bft) 98 %
29.08.2017 23:30 18,9 C 18,9 C 19,0 C 81 % 1011,9 hPa 0,0 l/m 3,2 km/h (1 Bft) W-NW 292 0 min 0,000 mm 0 W/m 15,6 C 18,9 C 6,4 km/h (2 Bft) 97 %
29.08.2017 23:40 18,8 C 18,8 C 18,9 C 82 % 1012,0 hPa 0,0 l/m 1,6 km/h (1 Bft) W-NW 292 0 min 0,000 mm 0 W/m 15,7 C 18,8 C 4,8 km/h (1 Bft) 98 %
29.08.2017 23:50 18,7 C 18,7 C 18,8 C 81 % 1012,0 hPa 0,0 l/m 3,2 km/h (1 Bft) W-NW 292 0 min 0,000 mm 0 W/m 15,4 C 18,7 C 4,8 km/h (1 Bft) 98 %
_ Min-Zeit 07:00 07:00 07:10 15:20 19:30 - 00:40 - - - - - 07:00 07:00 01:20 06:20
Minimum _ 13,2 C 13,2 C 13,2 C 47 % 1011,3 hPa - 0,0 km/h (0 Bft) - - - - - 11,4 C 13,2 C 0,0 km/h (0 Bft) 96 %
_ Max-Zeit 17:10 16:50 17:10 04:30 00:30 00:00 13:00 - - 08:40 14:00 13:10 11:30 15:20 12:20 00:00
Maximum _ 29,3 C 29,2 C 29,3 C 89 % 1016,5 hPa 0,0 l/m 4,7 km/h
S (1 Bft)
- - 10 min 0,533 mm 795 W/m 19,1 C 29,2 C 16,1 km/h
O-SO (3 Bft)
100 %
Durchschnitt _ 21,2 C 21,1 C 21,4 C 71 % 1013,9 hPa #0,0 l/m 0,8 km/h (0 Bft) N - #8:00 h #3,504 mm 396 W/m 15,4 C 21,2 C 4,2 km/h (1 Bft) 99 %
PRIVATE WETTERSTATION BILLIGHEIM-ALLFELD - www.neckar-odenwald-wetter.de - Holger Sonntag